Main page
METAR-TAF:

METAR-TAF

Airports :

Fort Madison Municipal Airport

Fort Madison, Iowa, United States

latitude: 40-40N, longitude: 091-20W, elevation: 725 ft

Current weather observation

The report was made 32 minutes ago, at 07:55 UTC
Wind 10 mph from the South
Temperature 75°F
Humidity 89%
Pressure 29.98 in. Hg
Visibility: 10 miles

METAR: KFSW 140755Z AUTO 17009KT 10SM 24/22 A2998 RMK AO2 PWINO

Time: 03:27 (08:27 UTC)


TAF: missing

Weather observations and forecasts of more than 4000 airports (METAR and TAF reports).

The available stations are represented by yellow and red dots on the map.

Hover mouse over dot to see the name of the station.

Then click to see weather observations and forecasts.

To change the map : click on the green buttons with a black cross to zoom in, on the green button with a dash to zoom out, or on the green arrows for adjacent maps.


METAR-TAF: